Time;durP1;ratioP1;P1;durP2;ratioP2;P2;SDS_P1;SDS_P2;PMS_P1;PMS_P2;Temp;Humidity;BMP_temperature;BMP_pressure;BME280_temperature;BME280_humidity;BME280_pressure;Samples;Min_cycle;Max_cycle;Signal;HPM_P1;HPM_P2
2023/02/13 00:01:16;;;;;;;216.05;98.13;;;0.10;99.90;;;;;;5035542;28;20033;-81
2023/02/13 00:03:42;;;;;;;198.50;92.70;;;0.10;99.90;;;;;;5035461;28;20037;-81
2023/02/13 00:06:08;;;;;;;197.38;92.43;;;0.10;99.90;;;;;;5018090;28;20470;-80
2023/02/13 00:08:34;;;;;;;184.63;85.15;;;0.20;99.90;;;;;;5035450;28;20025;-81
2023/02/13 00:11:00;;;;;;;141.35;73.35;;;0.20;99.90;;;;;;5017524;28;20414;-81
2023/02/13 00:13:25;;;;;;;140.32;66.28;;;0.20;99.90;;;;;;5035557;28;20032;-81
2023/02/13 00:15:56;;;;;;;136.55;69.40;;;0.20;99.90;;;;;;5017280;28;20050;-80
2023/02/13 00:18:22;;;;;;;147.63;71.85;;;0.20;99.90;;;;;;5035159;28;20032;-81
2023/02/13 00:21:04;;;;;;;142.35;68.80;;;0.20;99.90;;;;;;5035181;28;20100;-80
2023/02/13 00:23:31;;;;;;;143.68;66.80;;;0.20;99.90;;;;;;5035202;28;20026;-81
2023/02/13 00:25:57;;;;;;;130.75;64.82;;;0.20;99.90;;;;;;5035235;28;20097;-80
2023/02/13 00:28:23;;;;;;;133.27;65.28;;;0.20;99.90;;;;;;5035096;28;20067;-81
2023/02/13 00:30:48;;;;;;;124.53;65.47;;;0.20;99.90;;;;;;5034606;28;20387;-80
2023/02/13 00:33:14;;;;;;;161.88;83.88;;;0.30;99.90;;;;;;5034642;28;20026;-81
2023/02/13 00:35:40;;;;;;;154.52;76.35;;;0.30;99.90;;;;;;5017547;28;20029;-80
2023/02/13 00:38:05;;;;;;;149.65;71.88;;;0.30;99.90;;;;;;5035072;28;20382;-81
2023/02/13 00:40:31;;;;;;;141.48;75.00;;;0.30;99.90;;;;;;5034750;28;20429;-80
2023/02/13 00:42:57;;;;;;;144.23;72.10;;;0.30;99.90;;;;;;5017288;28;20029;-81
2023/02/13 00:45:22;;;;;;;131.80;64.38;;;0.40;99.90;;;;;;5017142;28;20029;-81
2023/02/13 00:47:48;;;;;;;128.98;62.55;;;0.40;99.90;;;;;;5017272;28;20380;-81
2023/02/13 00:50:13;;;;;;;117.18;59.42;;;0.30;99.90;;;;;;5034589;28;20021;-81
2023/02/13 00:52:39;;;;;;;123.30;59.75;;;0.30;99.90;;;;;;5017073;28;20041;-81
2023/02/13 00:55:05;;;;;;;124.60;60.85;;;0.40;99.90;;;;;;5034478;28;20022;-81
2023/02/13 00:57:31;;;;;;;114.10;53.45;;;0.40;99.90;;;;;;5034379;28;20037;-80
2023/02/13 00:59:57;;;;;;;110.57;57.13;;;0.40;99.90;;;;;;5034283;28;20028;-83
2023/02/13 01:02:23;;;;;;;111.80;54.75;;;0.40;99.90;;;;;;5015990;28;20025;-82
2023/02/13 01:04:49;;;;;;;134.75;68.70;;;0.40;99.90;;;;;;5034209;28;20032;-83
2023/02/13 01:07:14;;;;;;;139.65;74.10;;;0.50;99.90;;;;;;5034089;28;20021;-83
2023/02/13 01:09:40;;;;;;;110.35;56.05;;;0.40;99.90;;;;;;5034041;28;20393;-83
2023/02/13 01:12:06;;;;;;;110.35;56.05;;;0.50;99.90;;;;;;5033925;28;20029;-82
2023/02/13 01:14:32;;;;;;;109.43;53.35;;;0.40;99.90;;;;;;5034023;28;20045;-83
2023/02/13 01:16:57;;;;;;;113.28;55.15;;;0.50;99.90;;;;;;5034211;28;20029;-81
2023/02/13 01:19:23;;;;;;;114.07;54.95;;;0.50;99.90;;;;;;5034030;28;20022;-81
2023/02/13 01:21:49;;;;;;;115.07;58.15;;;0.50;99.90;;;;;;5034021;28;20026;-81
2023/02/13 01:24:14;;;;;;;109.45;56.22;;;0.50;99.90;;;;;;5033626;28;20029;-84
2023/02/13 01:26:40;;;;;;;117.53;60.20;;;0.50;99.90;;;;;;5033656;28;20033;-83
2023/02/13 01:29:06;;;;;;;115.50;58.63;;;0.50;99.90;;;;;;5033865;28;20021;-83
2023/02/13 01:31:32;;;;;;;110.25;54.00;;;0.50;99.90;;;;;;5033472;28;20109;-82
2023/02/13 01:33:58;;;;;;;104.30;50.58;;;0.50;99.90;;;;;;5033295;28;20416;-83
2023/02/13 01:36:24;;;;;;;120.47;57.60;;;0.50;99.90;;;;;;5033548;28;20068;-82
2023/02/13 01:38:57;;;;;;;119.85;57.88;;;0.50;99.90;;;;;;5033838;28;20053;-86
2023/02/13 01:41:25;;;;;;;115.85;52.97;;;0.50;99.90;;;;;;5033472;28;20490;-85
2023/02/13 01:43:56;;;;;;;111.47;54.92;;;0.50;99.90;;;;;;5033026;28;20017;-84
2023/02/13 01:46:28;;;;;;;116.28;58.80;;;0.50;99.90;;;;;;5015730;28;20090;-84
2023/02/13 01:48:58;;;;;;;121.60;59.88;;;0.50;99.90;;;;;;5015400;28;20053;-85
2023/02/13 01:51:28;;;;;;;114.07;58.13;;;0.50;99.90;;;;;;5033157;28;20017;-84
2023/02/13 01:54:02;;;;;;;120.80;60.70;;;0.50;99.90;;;;;;5015531;28;20438;-85
2023/02/13 01:56:48;;;;;;;117.07;56.35;;;0.60;99.90;;;;;;5015114;28;20509;-84
2023/02/13 01:59:20;;;;;;;110.82;55.28;;;0.50;99.90;;;;;;5033616;28;20028;-86
2023/02/13 02:01:46;;;;;;;117.30;58.03;;;0.50;99.90;;;;;;5020352;28;20032;-85
2023/02/13 02:04:14;;;;;;;126.90;62.38;;;0.50;99.90;;;;;;5013422;28;20494;-82
2023/02/13 02:06:48;;;;;;;115.00;58.90;;;0.50;99.90;;;;;;4995415;28;20361;-83
2023/02/13 02:09:18;;;;;;;120.35;55.75;;;0.60;99.90;;;;;;5013289;28;20033;-82
2023/02/13 02:12:00;;;;;;;119.25;58.30;;;0.60;99.90;;;;;;4995684;28;20072;-81
2023/02/13 02:14:26;;;;;;;118.35;58.60;;;0.50;99.90;;;;;;5013038;28;20045;-80
2023/02/13 02:16:52;;;;;;;115.63;54.72;;;0.60;99.90;;;;;;5013326;28;20368;-80
2023/02/13 02:19:40;;;;;;;125.20;60.70;;;0.60;99.90;;;;;;5013534;28;20022;-80
2023/02/13 02:22:49;;;;;;;126.18;61.63;;;0.60;99.90;;;;;;4995597;28;20092;-80
2023/02/13 02:25:43;;;;;;;126.32;59.50;;;0.60;99.90;;;;;;4995633;28;20018;-81
2023/02/13 02:28:21;;;;;;;180.18;81.22;;;0.60;99.90;;;;;;5010805;28;20060;-82
2023/02/13 02:30:59;;;;;;;189.15;86.32;;;0.60;99.90;;;;;;5015030;28;20029;-80
2023/02/13 02:33:41;;;;;;;139.95;68.40;;;0.60;99.90;;;;;;5015289;28;20036;-82
2023/02/13 02:36:27;;;;;;;136.30;62.70;;;0.60;99.90;;;;;;5015355;28;20048;-81
2023/02/13 02:39:10;;;;;;;148.45;64.82;;;0.60;99.90;;;;;;5014988;28;20057;-79
2023/02/13 02:42:23;;;;;;;154.65;78.10;;;0.60;99.90;;;;;;5015029;28;20420;-79
2023/02/13 02:45:00;;;;;;;154.15;71.43;;;0.60;99.90;;;;;;5008572;28;20124;-79
2023/02/13 02:50:28;;;;;;;150.60;68.78;;;0.60;99.90;;;;;;5032694;28;20087;-79
2023/02/13 02:53:28;;;;;;;156.05;65.13;;;0.70;99.90;;;;;;5032694;28;20030;-80
2023/02/13 02:56:13;;;;;;;157.13;72.55;;;0.70;99.90;;;;;;5035127;28;20022;-80
2023/02/13 03:07:16;;;;;;;151.80;71.53;;;0.80;99.90;;;;;;5036651;28;20037;-78
2023/02/13 03:24:16;;;;;;;160.85;73.10;;;0.80;99.90;;;;;;5036465;28;20035;-78
2023/02/13 03:26:50;;;;;;;;;;;0.80;99.90;;;;;;5036681;28;20387;-79
2023/02/13 03:32:19;;;;;;;143.88;67.45;;;0.80;99.90;;;;;;5036171;28;20084;-78
2023/02/13 03:37:55;;;;;;;152.23;68.88;;;0.80;99.90;;;;;;5035798;28;20052;-79
2023/02/13 03:41:17;;;;;;;156.63;69.32;;;0.90;99.90;;;;;;5036105;28;20406;-77
2023/02/13 03:43:26;;;;;;;;;;;0.90;99.90;;;;;;5036479;28;20080;-76
2023/02/13 03:45:51;;;;;;;145.65;66.32;;;0.90;99.90;;;;;;5035949;28;19915;-76
2023/02/13 03:51:12;;;;;;;165.32;68.35;;;0.80;99.90;;;;;;5036253;28;20088;-78
2023/02/13 03:53:40;;;;;;;155.50;68.60;;;0.80;99.90;;;;;;5018390;28;20109;-77
2023/02/13 03:59:17;;;;;;;170.73;68.10;;;0.80;99.90;;;;;;5016043;28;20096;-79
2023/02/13 04:01:48;;;;;;;165.75;72.00;;;0.80;99.90;;;;;;4998063;28;20022;-79
2023/02/13 04:04:34;;;;;;;155.55;63.22;;;0.90;99.90;;;;;;5015457;28;20018;-79
2023/02/13 04:07:28;;;;;;;159.55;66.45;;;0.90;99.90;;;;;;4996969;28;20084;-79
2023/02/13 04:09:55;;;;;;;158.82;65.47;;;0.80;99.90;;;;;;5015650;28;20018;-78
2023/02/13 04:12:44;;;;;;;177.77;72.25;;;0.90;99.90;;;;;;4998238;28;20030;-77
2023/02/13 04:15:34;;;;;;;191.93;71.38;;;0.80;99.90;;;;;;5001857;28;20480;-79
2023/02/13 04:18:23;;;;;;;159.70;64.53;;;0.90;99.90;;;;;;5001739;28;20451;-75
2023/02/13 04:20:49;;;;;;;144.73;57.80;;;0.90;99.90;;;;;;5015634;28;20092;-75
2023/02/13 04:23:15;;;;;;;147.90;60.08;;;0.90;99.90;;;;;;5015581;28;20025;-75
2023/02/13 04:25:45;;;;;;;156.18;61.47;;;0.90;99.90;;;;;;4997821;28;20435;-75
2023/02/13 04:28:11;;;;;;;154.35;61.97;;;0.90;99.90;;;;;;5015361;28;20118;-76
2023/02/13 04:30:38;;;;;;;160.20;60.42;;;0.90;99.90;;;;;;5015270;28;20444;-76
2023/02/13 04:33:04;;;;;;;128.90;60.50;;;0.90;99.90;;;;;;5015579;28;20053;-78
2023/02/13 04:35:30;;;;;;;139.65;59.38;;;0.90;99.90;;;;;;5015054;28;20018;-78
2023/02/13 04:37:55;;;;;;;138.57;59.97;;;0.90;99.90;;;;;;4997720;28;20034;-78
2023/02/13 04:40:21;;;;;;;164.10;58.60;;;1.00;99.90;;;;;;5015090;28;20030;-78
2023/02/13 04:42:48;;;;;;;173.35;61.22;;;1.00;99.90;;;;;;4997399;28;20548;-78
2023/02/13 04:45:14;;;;;;;140.80;59.95;;;1.00;99.90;;;;;;5014767;28;20391;-79
2023/02/13 04:47:40;;;;;;;208.95;67.40;;;1.00;99.90;;;;;;5014837;28;20030;-78
2023/02/13 04:50:06;;;;;;;178.57;59.45;;;1.00;99.90;;;;;;5014824;28;20088;-78
2023/02/13 04:52:32;;;;;;;153.38;57.80;;;1.00;99.90;;;;;;4997302;28;20034;-78
2023/02/13 04:54:58;;;;;;;245.93;71.10;;;1.00;99.90;;;;;;5014733;28;20502;-79
2023/02/13 04:57:23;;;;;;;308.15;79.32;;;1.10;99.90;;;;;;5014689;28;20080;-79
2023/02/13 04:59:49;;;;;;;259.88;67.05;;;1.10;99.90;;;;;;5014589;28;20022;-78
2023/02/13 05:02:15;;;;;;;270.83;65.70;;;1.00;99.90;;;;;;4996989;28;20022;-78
2023/02/13 05:04:41;;;;;;;287.80;70.88;;;1.00;99.90;;;;;;5014505;28;20061;-78
2023/02/13 05:07:06;;;;;;;344.70;79.30;;;1.00;99.90;;;;;;5014597;28;20049;-77
2023/02/13 05:09:32;;;;;;;295.00;76.25;;;1.00;99.90;;;;;;4997195;28;20506;-77
2023/02/13 05:11:58;;;;;;;175.55;55.22;;;1.00;99.90;;;;;;5014506;28;20025;-78
2023/02/13 05:14:23;;;;;;;232.15;60.75;;;1.00;99.90;;;;;;5014220;28;20403;-78
2023/02/13 05:16:49;;;;;;;390.98;77.53;;;1.00;99.90;;;;;;5014338;28;20059;-77
2023/02/13 05:19:15;;;;;;;313.45;74.03;;;1.00;99.90;;;;;;5013999;28;20062;-79
2023/02/13 05:24:25;;;;;;;180.57;57.53;;;1.00;99.90;;;;;;5014143;28;20392;-79
2023/02/13 05:26:51;;;;;;;218.90;62.17;;;1.00;99.90;;;;;;5013812;28;20029;-79
2023/02/13 05:29:21;;;;;;;212.23;58.95;;;1.10;99.90;;;;;;5013911;28;20045;-79
2023/02/13 05:31:52;;;;;;;125.63;47.20;;;1.00;99.90;;;;;;5014477;28;20041;-78
2023/02/13 05:34:18;;;;;;;128.35;46.25;;;1.10;99.90;;;;;;4980727;28;20479;-79
2023/02/13 05:36:43;;;;;;;124.22;48.08;;;1.00;99.90;;;;;;5001652;28;20030;-80
2023/02/13 05:39:09;;;;;;;125.35;46.70;;;1.10;99.90;;;;;;4994157;28;20358;-82
2023/02/13 05:41:35;;;;;;;104.97;43.60;;;1.10;99.90;;;;;;4976873;28;20058;-81
2023/02/13 05:44:00;;;;;;;130.20;46.30;;;1.10;99.90;;;;;;4976565;28;20019;-79
2023/02/13 05:46:26;;;;;;;155.95;46.97;;;1.10;99.90;;;;;;4993804;28;20041;-86
2023/02/13 05:48:52;;;;;;;96.88;38.50;;;1.10;99.90;;;;;;4994130;28;20392;-82
2023/02/13 05:51:19;;;;;;;118.97;43.40;;;1.10;99.90;;;;;;4973918;28;20098;-81
2023/02/13 05:53:45;;;;;;;124.22;45.75;;;1.10;99.90;;;;;;4957050;28;20463;-81
2023/02/13 05:56:11;;;;;;;134.15;44.83;;;1.10;99.90;;;;;;4974267;28;20081;-83
2023/02/13 05:58:37;;;;;;;203.13;56.20;;;1.10;99.90;;;;;;4974022;28;20093;-83
2023/02/13 06:01:02;;;;;;;126.68;43.13;;;1.10;99.90;;;;;;4957206;28;20027;-84
2023/02/13 06:03:29;;;;;;;99.57;38.65;;;1.10;99.90;;;;;;4956899;28;20107;-85
2023/02/13 06:05:56;;;;;;;124.47;41.83;;;1.10;99.90;;;;;;4976138;28;20544;-83
2023/02/13 06:08:22;;;;;;;209.82;57.40;;;1.10;99.90;;;;;;4956884;28;20035;-78
2023/02/13 06:10:48;;;;;;;221.23;57.85;;;1.10;99.90;;;;;;4974369;28;20097;-80
2023/02/13 06:13:15;;;;;;;336.63;71.95;;;1.10;99.90;;;;;;4956844;28;20476;-80
2023/02/13 06:15:40;;;;;;;128.23;45.53;;;1.10;99.90;;;;;;4957020;28;20094;-79
2023/02/13 06:18:06;;;;;;;164.73;45.08;;;1.20;99.90;;;;;;4974251;28;20038;-79
2023/02/13 06:20:32;;;;;;;162.77;44.10;;;1.10;99.90;;;;;;4956467;28;20023;-79
2023/02/13 06:22:58;;;;;;;197.77;47.88;;;1.20;99.90;;;;;;4956993;28;20031;-79
2023/02/13 06:25:23;;;;;;;195.13;52.33;;;1.20;99.90;;;;;;4956903;28;20019;-79
2023/02/13 06:27:49;;;;;;;146.88;47.42;;;1.20;99.90;;;;;;4956920;28;20415;-79
2023/02/13 06:30:16;;;;;;;206.73;56.72;;;1.20;99.90;;;;;;4959731;28;20063;-79
2023/02/13 06:32:44;;;;;;;212.32;55.88;;;1.20;99.90;;;;;;4978440;28;20547;-78
2023/02/13 06:35:10;;;;;;;138.98;45.38;;;1.20;99.90;;;;;;4978366;28;20030;-79
2023/02/13 06:37:35;;;;;;;140.02;47.47;;;1.20;99.90;;;;;;4978041;28;20039;-79
2023/02/13 06:40:01;;;;;;;289.38;68.38;;;1.20;99.90;;;;;;4965826;28;20073;-79
2023/02/13 06:42:27;;;;;;;557.40;130.63;;;1.20;99.90;;;;;;4969197;28;20125;-81
2023/02/13 06:44:53;;;;;;;503.83;116.65;;;1.20;99.90;;;;;;4981684;28;20491;-80
2023/02/13 06:47:18;;;;;;;226.05;70.03;;;1.30;99.90;;;;;;4978175;28;20035;-80
2023/02/13 06:49:44;;;;;;;226.93;69.38;;;1.30;99.90;;;;;;4996777;28;20065;-79
2023/02/13 06:52:10;;;;;;;230.15;61.08;;;1.30;99.90;;;;;;4995491;28;20030;-80
2023/02/13 06:54:35;;;;;;;122.22;43.35;;;1.30;99.90;;;;;;4991122;28;20015;-79
2023/02/13 06:57:01;;;;;;;107.18;43.70;;;1.40;99.90;;;;;;4992897;28;20089;-80
2023/02/13 06:59:26;;;;;;;143.40;53.10;;;1.40;99.90;;;;;;4992511;28;20026;-79
2023/02/13 07:01:52;;;;;;;113.57;43.42;;;1.40;99.90;;;;;;4993037;28;20030;-80
2023/02/13 07:04:18;;;;;;;98.85;43.05;;;1.40;99.90;;;;;;4975474;28;20028;-80
2023/02/13 07:06:43;;;;;;;95.85;40.55;;;1.50;99.90;;;;;;4993061;28;20058;-80
2023/02/13 07:09:12;;;;;;;132.88;49.20;;;1.60;99.90;;;;;;4993671;28;20414;-79
2023/02/13 07:11:38;;;;;;;92.07;35.53;;;1.60;99.90;;;;;;4976403;28;20069;-80
2023/02/13 07:14:05;;;;;;;104.20;46.25;;;1.60;99.90;;;;;;4979276;28;20050;-80
2023/02/13 07:16:31;;;;;;;88.70;35.58;;;1.50;99.90;;;;;;4997065;28;20066;-80
2023/02/13 07:18:57;;;;;;;101.05;42.67;;;1.60;99.90;;;;;;4996046;28;20657;-80
2023/02/13 07:21:22;;;;;;;79.68;37.47;;;1.60;99.90;;;;;;4996221;28;20380;-80
2023/02/13 07:23:48;;;;;;;84.80;36.95;;;1.70;99.90;;;;;;4976340;28;20030;-79
2023/02/13 07:26:15;;;;;;;80.78;37.08;;;1.80;99.90;;;;;;4994798;28;20030;-79
2023/02/13 07:28:40;;;;;;;75.90;34.67;;;1.80;99.90;;;;;;4994795;28;20109;-80
2023/02/13 07:31:06;;;;;;;73.25;34.65;;;1.80;99.90;;;;;;4977621;28;20114;-80
2023/02/13 07:33:35;;;;;;;82.82;34.80;;;1.90;99.90;;;;;;4977583;28;20487;-80
2023/02/13 07:36:02;;;;;;;101.90;40.30;;;2.00;99.90;;;;;;4977604;28;20537;-80
2023/02/13 07:38:32;;;;;;;110.07;43.45;;;2.00;99.90;;;;;;4999452;28;20113;-80
2023/02/13 07:40:58;;;;;;;126.05;48.10;;;2.00;99.90;;;;;;5015447;28;20026;-79
2023/02/13 07:43:24;;;;;;;119.00;44.80;;;2.00;99.90;;;;;;5016086;28;20033;-79
2023/02/13 07:45:54;;;;;;;128.65;46.65;;;2.00;99.90;;;;;;4998899;28;20021;-80
2023/02/13 07:48:23;;;;;;;115.78;46.40;;;2.00;99.90;;;;;;5016140;28;20030;-79
2023/02/13 07:50:49;;;;;;;93.57;40.50;;;2.00;99.90;;;;;;4998778;28;20032;-79
2023/02/13 07:53:14;;;;;;;95.90;41.60;;;2.00;99.90;;;;;;4998601;28;20026;-80
2023/02/13 07:55:40;;;;;;;109.20;43.17;;;2.10;99.90;;;;;;5016031;28;20026;-80
2023/02/13 07:58:06;;;;;;;84.93;38.13;;;2.10;99.90;;;;;;5015806;28;20045;-79
2023/02/13 08:00:31;;;;;;;93.60;35.80;;;2.10;99.90;;;;;;5016437;28;20109;-80
2023/02/13 08:03:00;;;;;;;96.50;42.15;;;2.10;99.90;;;;;;5015836;28;20590;-80
2023/02/13 08:05:27;;;;;;;95.30;40.15;;;2.20;99.90;;;;;;5015877;28;20030;-79
2023/02/13 08:07:53;;;;;;;84.80;35.25;;;2.20;99.90;;;;;;4998169;28;20022;-80
2023/02/13 08:13:05;;;;;;;90.55;38.67;;;2.30;99.90;;;;;;5015802;28;20589;-79
2023/02/13 08:15:31;;;;;;;85.18;33.58;;;2.30;99.90;;;;;;4998306;28;20488;-80
2023/02/13 08:17:56;;;;;;;71.35;31.30;;;2.30;99.90;;;;;;5015426;28;20030;-79
2023/02/13 08:20:22;;;;;;;87.78;34.13;;;2.40;99.90;;;;;;5015955;28;20100;-80
2023/02/13 08:22:48;;;;;;;72.22;30.58;;;2.50;99.90;;;;;;4998310;28;20052;-80
2023/02/13 08:25:14;;;;;;;99.82;40.83;;;2.50;99.90;;;;;;4997971;28;20053;-79
2023/02/13 08:27:40;;;;;;;74.15;31.95;;;2.60;99.90;;;;;;5015295;28;20030;-80
2023/02/13 08:30:06;;;;;;;69.25;32.40;;;2.50;99.90;;;;;;4997613;28;20100;-80
2023/02/13 08:32:32;;;;;;;74.10;32.28;;;2.50;99.90;;;;;;5015011;28;20449;-80
2023/02/13 08:34:58;;;;;;;97.72;37.83;;;2.60;99.90;;;;;;4997918;28;20057;-80
2023/02/13 08:37:23;;;;;;;95.95;39.58;;;2.70;99.90;;;;;;4997662;28;20061;-80
2023/02/13 08:39:49;;;;;;;95.20;42.67;;;2.70;99.90;;;;;;5015097;28;20523;-79
2023/02/13 08:42:15;;;;;;;105.45;50.60;;;2.80;99.90;;;;;;5015177;28;20022;-80
2023/02/13 08:44:41;;;;;;;84.15;42.05;;;2.80;99.90;;;;;;5015484;28;20038;-80
2023/02/13 08:47:07;;;;;;;85.32;39.38;;;2.90;99.90;;;;;;5015065;28;20029;-80
2023/02/13 08:49:33;;;;;;;75.07;30.45;;;2.90;99.90;;;;;;5014930;28;20077;-80
2023/02/13 08:52:00;;;;;;;75.45;34.08;;;2.90;99.90;;;;;;5014477;28;20505;-80
2023/02/13 08:54:26;;;;;;;71.10;31.77;;;3.00;99.90;;;;;;5014509;28;20014;-80
2023/02/13 08:56:52;;;;;;;72.68;32.03;;;3.00;99.90;;;;;;5015032;28;20034;-79
2023/02/13 08:59:18;;;;;;;76.07;32.28;;;3.00;99.90;;;;;;5014747;28;20017;-80
2023/02/13 09:01:44;;;;;;;66.18;30.67;;;3.00;99.90;;;;;;4997342;28;20033;-80
2023/02/13 09:04:10;;;;;;;67.32;28.67;;;3.00;99.90;;;;;;4997287;28;20033;-80
2023/02/13 09:06:36;;;;;;;59.65;27.00;;;3.00;99.90;;;;;;4996831;28;20053;-80
2023/02/13 09:09:03;;;;;;;60.90;28.27;;;3.00;99.90;;;;;;5014583;28;20097;-80
2023/02/13 09:11:29;;;;;;;72.05;31.20;;;3.00;99.90;;;;;;5014394;28;20014;-80
2023/02/13 09:13:55;;;;;;;61.53;30.17;;;3.10;99.90;;;;;;4996381;28;20080;-80
2023/02/13 09:16:21;;;;;;;59.40;27.33;;;3.10;99.90;;;;;;5014476;28;20025;-79
2023/02/13 09:18:48;;;;;;;59.08;29.33;;;3.10;99.90;;;;;;5014477;28;20037;-80
2023/02/13 09:21:14;;;;;;;58.83;29.60;;;3.00;99.90;;;;;;5014555;28;20030;-80
2023/02/13 09:23:40;;;;;;;53.10;27.67;;;3.10;99.90;;;;;;5003311;28;20022;-80
2023/02/13 09:26:09;;;;;;;63.20;27.90;;;3.10;99.90;;;;;;4994610;28;20101;-80
2023/02/13 09:28:36;;;;;;;58.10;24.75;;;3.20;99.90;;;;;;4977371;28;20015;-80
2023/02/13 09:31:09;;;;;;;53.13;25.67;;;3.30;99.90;;;;;;4994453;28;20519;-80
2023/02/13 09:33:35;;;;;;;55.15;25.95;;;3.30;99.90;;;;;;4994546;28;20072;-80
2023/02/13 09:36:05;;;;;;;54.67;26.52;;;3.30;99.90;;;;;;4994459;28;20037;-80
2023/02/13 09:38:31;;;;;;;58.50;29.23;;;3.40;99.90;;;;;;4994501;28;20185;-80
2023/02/13 09:41:02;;;;;;;58.25;29.75;;;3.40;99.90;;;;;;4994398;28;20105;-80
2023/02/13 09:43:32;;;;;;;53.50;26.58;;;3.50;99.90;;;;;;4994475;28;20129;-80
2023/02/13 09:46:03;;;;;;;44.47;24.75;;;3.60;99.90;;;;;;4987033;28;20054;-80
2023/02/13 09:48:36;;;;;;;56.08;25.48;;;3.70;99.90;;;;;;4989848;28;21710;-80
2023/02/13 09:51:04;;;;;;;54.83;26.35;;;3.80;99.90;;;;;;4981751;28;20512;-80
2023/02/13 09:53:32;;;;;;;56.35;26.45;;;3.80;99.90;;;;;;4983269;28;20468;-80
2023/02/13 09:56:15;;;;;;;52.92;23.13;;;3.90;99.90;;;;;;4974228;28;20030;-80
2023/02/13 09:58:47;;;;;;;57.50;25.50;;;3.90;99.90;;;;;;4992877;28;20027;-80
2023/02/13 10:01:25;;;;;;;50.47;23.63;;;3.80;99.90;;;;;;4976860;28;20023;-80
2023/02/13 10:04:12;;;;;;;47.22;23.30;;;3.80;99.90;;;;;;4976472;28;20026;-80
2023/02/13 10:06:49;;;;;;;51.85;24.70;;;3.80;99.90;;;;;;4972785;28;20027;-80
2023/02/13 10:10:17;;;;;;;45.17;20.95;;;3.80;99.90;;;;;;4972648;28;20073;-80
2023/02/13 10:12:51;;;;;;;45.00;22.27;;;3.70;99.90;;;;;;4912884;29;20074;-80
2023/02/13 10:15:34;;;;;;;40.40;19.42;;;3.70;99.90;;;;;;4912407;29;20056;-80
2023/02/13 10:18:04;;;;;;;52.83;23.80;;;3.70;99.90;;;;;;4960567;28;20183;-80
2023/02/13 10:20:51;;;;;;;65.72;28.38;;;3.70;99.90;;;;;;4973402;28;20405;-80
2023/02/13 10:23:20;;;;;;;57.92;26.60;;;3.70;99.90;;;;;;4974430;28;20026;-80
2023/02/13 10:25:50;;;;;;;71.32;29.48;;;3.70;99.90;;;;;;4974462;28;20034;-80
2023/02/13 10:28:31;;;;;;;52.67;24.77;;;3.70;99.90;;;;;;4973934;28;20040;-80
2023/02/13 10:31:06;;;;;;;62.85;27.15;;;3.70;99.90;;;;;;4956477;28;20023;-80
2023/02/13 10:33:45;;;;;;;51.03;24.50;;;3.70;99.90;;;;;;4978059;28;20018;-80
2023/02/13 10:36:24;;;;;;;52.30;24.58;;;3.80;99.90;;;;;;4992624;28;20041;-80
2023/02/13 10:39:01;;;;;;;58.63;28.13;;;3.80;99.90;;;;;;4992657;28;20030;-80
2023/02/13 10:41:59;;;;;;;162.27;59.58;;;3.70;99.90;;;;;;4992622;28;20563;-80
2023/02/13 10:44:51;;;;;;;101.10;41.80;;;3.80;99.90;;;;;;4992439;28;20019;-80
2023/02/13 10:47:39;;;;;;;55.42;25.13;;;3.80;99.90;;;;;;4992408;28;20031;-80
2023/02/13 10:50:27;;;;;;;58.50;25.25;;;3.70;99.90;;;;;;4992600;28;20030;-80
2023/02/13 10:53:13;;;;;;;56.17;27.23;;;3.80;99.90;;;;;;4990660;28;20053;-80
2023/02/13 10:56:09;;;;;;;53.15;27.60;;;3.90;99.90;;;;;;4969170;28;20084;-81
2023/02/13 10:59:19;;;;;;;41.13;22.60;;;4.00;99.90;;;;;;4990830;28;20030;-81
2023/02/13 11:02:08;;;;;;;41.75;21.52;;;4.00;99.90;;;;;;4992616;28;20034;-80
2023/02/13 11:04:33;;;;;;;36.33;20.13;;;4.00;99.90;;;;;;4993196;28;20037;-80
2023/02/13 11:07:04;;;;;;;42.28;22.63;;;4.10;99.90;;;;;;4993294;28;20026;-80
2023/02/13 11:09:39;;;;;;;39.65;21.23;;;4.10;99.90;;;;;;4975829;28;20519;-80
2023/02/13 11:12:32;;;;;;;38.65;22.85;;;4.10;99.90;;;;;;4975742;28;20019;-80
2023/02/13 11:15:03;;;;;;;42.20;23.48;;;4.00;99.90;;;;;;4991198;28;20054;-80
2023/02/13 11:17:34;;;;;;;35.83;19.92;;;4.00;99.90;;;;;;4994837;28;20046;-81
2023/02/13 11:20:04;;;;;;;43.70;22.65;;;3.90;99.90;;;;;;4987402;28;20117;-80
2023/02/13 11:22:43;;;;;;;39.58;22.13;;;3.90;99.90;;;;;;4979314;28;20034;-80
2023/02/13 11:25:30;;;;;;;46.20;24.90;;;3.90;99.90;;;;;;4969633;28;20042;-80
2023/02/13 11:28:19;;;;;;;37.13;20.02;;;3.90;99.90;;;;;;4989098;28;20053;-80
2023/02/13 11:30:45;;;;;;;38.60;19.35;;;3.90;99.90;;;;;;4992779;28;20026;-81
2023/02/13 11:33:17;;;;;;;37.92;20.80;;;3.90;99.90;;;;;;4998236;28;20404;-81
2023/02/13 11:35:43;;;;;;;44.15;23.92;;;3.90;99.90;;;;;;4996307;28;20023;-80
2023/02/13 11:38:09;;;;;;;44.20;24.30;;;4.00;99.90;;;;;;4992580;28;20097;-81
2023/02/13 11:40:36;;;;;;;42.30;23.38;;;4.00;99.90;;;;;;4984234;28;20030;-80
2023/02/13 11:43:05;;;;;;;39.45;21.98;;;4.00;99.90;;;;;;4975297;28;20543;-80
2023/02/13 11:45:31;;;;;;;52.05;29.42;;;4.10;99.90;;;;;;4994269;28;20117;-81
2023/02/13 11:48:07;;;;;;;40.22;23.42;;;4.10;99.90;;;;;;4977510;28;20105;-80
2023/02/13 11:50:35;;;;;;;44.65;27.08;;;4.20;99.90;;;;;;4972492;28;20037;-82
2023/02/13 11:53:16;;;;;;;46.13;26.63;;;4.20;99.90;;;;;;4984492;28;20019;-82
2023/02/13 11:55:44;;;;;;;144.52;77.85;;;4.30;99.90;;;;;;4966605;28;20465;-81
2023/02/13 11:58:10;;;;;;;129.23;68.82;;;4.30;99.90;;;;;;4982800;28;20037;-81
2023/02/13 12:00:41;;;;;;;123.35;61.05;;;4.30;99.90;;;;;;4984216;28;20383;-82
2023/02/13 12:03:37;;;;;;;207.35;103.70;;;4.20;99.90;;;;;;4969565;28;20027;-81
2023/02/13 12:06:13;;;;;;;112.18;65.65;;;4.10;99.90;;;;;;4986449;28;20039;-81
2023/02/13 12:08:41;;;;;;;369.85;162.30;;;4.10;99.90;;;;;;4994305;28;20034;-82
2023/02/13 12:11:48;;;;;;;360.10;148.80;;;4.20;99.90;;;;;;4977537;28;20085;-82
2023/02/13 12:14:19;;;;;;;220.10;70.53;;;4.20;99.90;;;;;;4994765;28;20147;-81
2023/02/13 12:16:59;;;;;;;60.78;30.02;;;4.10;99.90;;;;;;4986094;28;20508;-81
2023/02/13 12:19:33;;;;;;;63.35;31.17;;;4.10;99.90;;;;;;4993640;28;20029;-82
2023/02/13 12:22:17;;;;;;;89.93;44.55;;;4.00;99.90;;;;;;4994661;28;20384;-83
2023/02/13 12:25:04;;;;;;;97.85;44.45;;;4.00;99.90;;;;;;4994265;28;20030;-83
2023/02/13 12:27:52;;;;;;;90.90;39.00;;;3.90;99.90;;;;;;4993763;28;20026;-82
2023/02/13 12:30:43;;;;;;;93.50;36.53;;;3.90;99.90;;;;;;4994505;28;20034;-82
2023/02/13 12:33:26;;;;;;;79.22;32.70;;;3.90;99.90;;;;;;4974547;28;20050;-81
2023/02/13 12:36:15;;;;;;;;;;;3.90;99.90;;;;;;4994136;28;20439;-84
2023/02/13 12:38:45;;;;;;;70.97;30.65;;;3.80;99.90;;;;;;4985238;28;19914;-83
2023/02/13 12:41:17;;;;;;;66.75;32.95;;;3.80;99.90;;;;;;4994300;28;20060;-81
2023/02/13 12:44:10;;;;;;;254.75;86.10;;;3.80;99.90;;;;;;4993798;28;20038;-83
2023/02/13 12:47:01;;;;;;;105.45;50.40;;;3.80;99.90;;;;;;4993729;28;20026;-81
2023/02/13 12:49:48;;;;;;;102.75;52.03;;;3.80;99.90;;;;;;4971233;28;20146;-81
2023/02/13 12:52:20;;;;;;;79.10;38.13;;;3.80;99.90;;;;;;4982447;28;20050;-81
2023/02/13 12:55:10;;;;;;;74.47;34.03;;;3.80;99.90;;;;;;4965486;28;20057;-81
2023/02/13 12:57:59;;;;;;;94.40;37.42;;;3.80;99.90;;;;;;4964210;28;20041;-80
2023/02/13 13:00:48;;;;;;;67.43;34.42;;;3.80;99.90;;;;;;4969571;28;20552;-82
2023/02/13 13:03:55;;;;;;;149.38;66.20;;;3.80;99.90;;;;;;4975629;28;20077;-81
2023/02/13 13:07:01;;;;;;;478.35;160.63;;;3.90;99.90;;;;;;4968934;28;20031;-81
2023/02/13 13:09:57;;;;;;;232.25;73.45;;;3.90;99.90;;;;;;4979976;28;20129;-81
2023/02/13 13:12:26;;;;;;;92.70;37.55;;;3.90;99.90;;;;;;4994623;28;20030;-81
2023/02/13 13:15:09;;;;;;;90.22;36.13;;;4.00;99.90;;;;;;4994424;28;20049;-81
2023/02/13 13:18:10;;;;;;;71.03;31.43;;;4.00;99.90;;;;;;4994812;28;20040;-81
2023/02/13 13:20:38;;;;;;;52.60;25.42;;;4.00;99.90;;;;;;4994584;28;20323;-81
2023/02/13 13:23:24;;;;;;;73.05;30.65;;;3.90;99.90;;;;;;5011968;28;20061;-81
2023/02/13 13:26:04;;;;;;;75.18;30.55;;;3.90;99.90;;;;;;4983410;28;20030;-83
2023/02/13 13:28:40;;;;;;;81.00;35.17;;;3.90;99.90;;;;;;4978900;28;20042;-83
2023/02/13 13:31:07;;;;;;;454.33;191.45;;;3.90;99.90;;;;;;4975529;28;20034;-81
2023/02/13 13:33:34;;;;;;;354.92;111.05;;;3.90;99.90;;;;;;4957023;28;20575;-83
2023/02/13 13:36:45;;;;;;;82.43;33.78;;;3.80;99.90;;;;;;4982553;28;20028;-83
2023/02/13 13:39:24;;;;;;;145.63;66.82;;;3.80;99.90;;;;;;4956613;28;20057;-82